Time;durP1;ratioP1;P1;durP2;ratioP2;P2;SDS_P1;SDS_P2;PMS_P1;PMS_P2;Temp;Humidity;BMP_temperature;BMP_pressure;BME280_temperature;BME280_humidity;BME280_pressure;Samples;Min_cycle;Max_cycle;Signal;HPM_P1;HPM_P2
2023/11/24 00:00:27;;;;;;;10.48;2.00;;;8.20;99.90;;;;;;5072451;28;20029;-74
2023/11/24 00:02:52;;;;;;;9.93;2.25;;;8.20;99.90;;;;;;5072204;28;20039;-75
2023/11/24 00:05:18;;;;;;;10.50;2.03;;;8.10;99.90;;;;;;5072378;28;20032;-75
2023/11/24 00:07:45;;;;;;;10.55;1.85;;;8.10;99.90;;;;;;5072290;28;20021;-76
2023/11/24 00:10:11;;;;;;;13.68;2.30;;;8.00;99.90;;;;;;5072259;28;20027;-76
2023/11/24 00:12:37;;;;;;;10.80;2.00;;;7.90;99.90;;;;;;5072235;28;20028;-76
2023/11/24 00:15:04;;;;;;;5.97;1.55;;;7.80;99.90;;;;;;5072298;28;20040;-76
2023/11/24 00:17:29;;;;;;;7.53;1.55;;;7.80;99.90;;;;;;5072281;28;20035;-76
2023/11/24 00:19:55;;;;;;;11.75;2.22;;;7.70;99.90;;;;;;5072490;28;20028;-76
2023/11/24 00:22:20;;;;;;;11.00;1.73;;;7.70;99.90;;;;;;5071847;28;20041;-77
2023/11/24 00:24:48;;;;;;;8.55;1.88;;;7.70;99.90;;;;;;5072280;28;20481;-77
2023/11/24 00:27:14;;;;;;;9.30;2.28;;;7.80;99.90;;;;;;5072094;28;20493;-77
2023/11/24 00:29:41;;;;;;;12.43;2.25;;;7.80;99.90;;;;;;5072948;28;20016;-76
2023/11/24 00:32:06;;;;;;;16.13;2.72;;;7.80;99.90;;;;;;5075653;28;20027;-76
2023/11/24 00:34:32;;;;;;;9.75;1.95;;;7.80;99.90;;;;;;5075737;28;20112;-76
2023/11/24 00:36:58;;;;;;;11.70;2.40;;;7.90;99.90;;;;;;5075186;28;20021;-77
2023/11/24 00:39:24;;;;;;;18.30;2.50;;;7.80;99.90;;;;;;5075106;28;20025;-77
2023/11/24 00:41:49;;;;;;;16.10;2.90;;;7.80;99.90;;;;;;5075390;28;20036;-76
2023/11/24 00:44:15;;;;;;;16.58;2.15;;;7.80;99.90;;;;;;5075405;28;20039;-76
2023/11/24 00:46:41;;;;;;;16.10;2.80;;;7.80;99.90;;;;;;5075080;28;20560;-77
2023/11/24 00:49:06;;;;;;;15.93;2.63;;;7.80;99.90;;;;;;5075016;28;20103;-76
2023/11/24 00:51:32;;;;;;;15.00;2.90;;;7.80;99.90;;;;;;5075283;28;20130;-77
2023/11/24 00:53:57;;;;;;;14.98;2.30;;;7.70;99.90;;;;;;5075392;28;20028;-77
2023/11/24 00:56:23;;;;;;;15.63;2.28;;;7.70;99.90;;;;;;5074801;28;20106;-77
2023/11/24 00:58:50;;;;;;;12.43;2.53;;;7.60;99.90;;;;;;5074824;28;20021;-77
2023/11/24 01:01:16;;;;;;;13.15;2.17;;;7.60;99.90;;;;;;5075206;28;20063;-77
2023/11/24 01:03:42;;;;;;;15.82;2.63;;;7.50;99.90;;;;;;5074923;28;20033;-76
2023/11/24 01:06:08;;;;;;;11.00;2.33;;;7.50;99.90;;;;;;5075058;28;20398;-76
2023/11/24 01:08:33;;;;;;;9.38;1.92;;;7.50;99.90;;;;;;5075141;28;20032;-76
2023/11/24 01:11:01;;;;;;;9.32;2.15;;;7.40;99.90;;;;;;5075196;28;20553;-76
2023/11/24 01:13:31;;;;;;;12.38;1.98;;;7.40;99.90;;;;;;5075050;28;20043;-77
2023/11/24 01:15:57;;;;;;;10.57;1.90;;;7.40;99.90;;;;;;5075050;28;20038;-77
2023/11/24 01:18:25;;;;;;;9.20;2.30;;;7.30;99.90;;;;;;5074727;28;20036;-76
2023/11/24 01:20:51;;;;;;;10.52;2.47;;;7.30;99.90;;;;;;5074826;28;20024;-76
2023/11/24 01:23:16;;;;;;;16.88;2.97;;;7.30;99.90;;;;;;5074165;28;20044;-77
2023/11/24 01:25:42;;;;;;;8.52;2.03;;;7.30;99.90;;;;;;5074323;28;20025;-76
2023/11/24 01:28:07;;;;;;;11.23;1.77;;;7.40;99.90;;;;;;5074744;28;20032;-77
2023/11/24 01:30:33;;;;;;;11.38;2.53;;;7.30;99.90;;;;;;5074231;28;20104;-76
2023/11/24 01:32:59;;;;;;;12.27;2.00;;;7.30;99.90;;;;;;5074473;28;20032;-76
2023/11/24 01:35:24;;;;;;;11.68;1.77;;;7.20;99.90;;;;;;5074266;28;20082;-77
2023/11/24 01:37:50;;;;;;;10.00;2.05;;;7.20;99.90;;;;;;5074430;28;20028;-76
2023/11/24 01:40:18;;;;;;;8.07;1.80;;;7.20;99.90;;;;;;5074366;28;20028;-76
2023/11/24 01:42:43;;;;;;;17.17;2.20;;;7.20;99.90;;;;;;5074238;28;20052;-76
2023/11/24 01:45:10;;;;;;;12.52;2.03;;;7.30;99.90;;;;;;5074341;28;20029;-77
2023/11/24 01:47:37;;;;;;;7.38;1.88;;;7.30;99.90;;;;;;5073841;28;20029;-77
2023/11/24 01:50:03;;;;;;;13.20;2.65;;;7.30;99.90;;;;;;5074207;28;20021;-77
2023/11/24 01:52:30;;;;;;;10.02;2.10;;;7.30;99.90;;;;;;5074178;28;20482;-77
2023/11/24 01:54:56;;;;;;;9.38;1.88;;;7.40;99.90;;;;;;5073665;28;20032;-76
2023/11/24 01:57:22;;;;;;;7.80;2.33;;;7.40;99.90;;;;;;5073977;28;20105;-77
2023/11/24 01:59:48;;;;;;;11.98;3.03;;;7.40;99.90;;;;;;5074011;28;20025;-76
2023/11/24 02:02:14;;;;;;;13.80;2.28;;;7.40;99.90;;;;;;5073796;28;20386;-76
2023/11/24 02:04:40;;;;;;;12.43;2.10;;;7.40;99.90;;;;;;5074007;28;20016;-76
2023/11/24 02:07:07;;;;;;;14.15;1.92;;;7.40;99.90;;;;;;5073880;28;20033;-77
2023/11/24 02:09:34;;;;;;;15.98;2.60;;;7.40;99.90;;;;;;5073771;28;20074;-76
2023/11/24 02:11:59;;;;;;;14.88;2.55;;;7.40;99.90;;;;;;5073980;28;20028;-76
2023/11/24 02:14:25;;;;;;;19.40;2.72;;;7.40;99.90;;;;;;5073701;28;20433;-77
2023/11/24 02:16:50;;;;;;;18.08;2.75;;;7.40;99.90;;;;;;5073585;28;20474;-77
2023/11/24 02:19:17;;;;;;;11.02;2.50;;;7.40;99.90;;;;;;5073240;28;20063;-77
2023/11/24 02:21:43;;;;;;;13.43;3.22;;;7.30;99.90;;;;;;5073030;28;20493;-77
2023/11/24 02:24:09;;;;;;;9.52;2.00;;;7.20;99.90;;;;;;5073304;28;20544;-77
2023/11/24 02:26:34;;;;;;;10.20;2.08;;;7.20;99.90;;;;;;5073101;28;20021;-76
2023/11/24 02:29:00;;;;;;;11.60;2.35;;;7.20;99.90;;;;;;5073162;28;20106;-77
2023/11/24 02:31:25;;;;;;;15.85;2.28;;;7.20;99.90;;;;;;5073491;28;20032;-77
2023/11/24 02:33:52;;;;;;;10.45;1.77;;;7.20;99.90;;;;;;5073451;28;20492;-77
2023/11/24 02:36:20;;;;;;;11.20;2.42;;;7.20;99.90;;;;;;5073311;28;20056;-77
2023/11/24 02:38:49;;;;;;;12.68;2.63;;;7.20;99.90;;;;;;5073096;28;20052;-77
2023/11/24 02:41:16;;;;;;;11.02;2.08;;;7.10;99.90;;;;;;5073177;28;20036;-77
2023/11/24 02:43:42;;;;;;;10.00;2.13;;;7.10;99.90;;;;;;5072826;28;20028;-77
2023/11/24 02:46:13;;;;;;;13.18;2.47;;;7.00;99.90;;;;;;5073428;28;20028;-77
2023/11/24 02:48:42;;;;;;;13.95;2.03;;;7.00;99.90;;;;;;5072803;28;20024;-77
2023/11/24 02:51:07;;;;;;;17.70;2.65;;;7.00;99.90;;;;;;5073148;28;20028;-76
2023/11/24 02:53:35;;;;;;;15.88;2.33;;;7.00;99.90;;;;;;5072311;28;20039;-77
2023/11/24 02:56:01;;;;;;;14.70;2.20;;;7.00;99.90;;;;;;5073104;28;20508;-77
2023/11/24 02:58:26;;;;;;;14.68;2.30;;;7.00;99.90;;;;;;5072617;28;20028;-76
2023/11/24 03:00:53;;;;;;;11.27;2.15;;;7.00;99.90;;;;;;5073056;28;20039;-76
2023/11/24 03:03:18;;;;;;;16.63;2.50;;;7.00;99.90;;;;;;5072737;28;20109;-77
2023/11/24 03:05:44;;;;;;;14.65;2.40;;;6.90;99.90;;;;;;5072991;28;20025;-76
2023/11/24 03:08:09;;;;;;;14.52;1.80;;;6.90;99.90;;;;;;5073001;28;20086;-77
2023/11/24 03:10:35;;;;;;;9.65;2.28;;;7.00;99.90;;;;;;5072733;28;20063;-76
2023/11/24 03:13:01;;;;;;;13.23;2.53;;;6.90;99.90;;;;;;5072423;28;20060;-77
2023/11/24 03:15:26;;;;;;;8.40;1.80;;;6.90;99.90;;;;;;5072797;28;20067;-77
2023/11/24 03:17:52;;;;;;;16.17;2.53;;;6.90;99.90;;;;;;5072819;28;20421;-77
2023/11/24 03:20:21;;;;;;;9.32;1.80;;;6.90;99.90;;;;;;5072371;28;20115;-76
2023/11/24 03:22:48;;;;;;;9.43;2.05;;;6.90;99.90;;;;;;5072277;28;20502;-76
2023/11/24 03:25:14;;;;;;;10.80;2.15;;;6.90;99.90;;;;;;5072735;28;20028;-77
2023/11/24 03:27:39;;;;;;;9.35;1.95;;;6.90;99.90;;;;;;5072687;28;20548;-77
2023/11/24 03:30:05;;;;;;;9.48;2.22;;;6.90;99.90;;;;;;5072670;28;20052;-77
2023/11/24 03:32:31;;;;;;;5.72;1.67;;;6.90;99.90;;;;;;5072723;28;20071;-77
2023/11/24 03:34:56;;;;;;;7.80;1.85;;;6.90;99.90;;;;;;5072182;28;20056;-77
2023/11/24 03:37:22;;;;;;;11.63;2.05;;;6.90;99.90;;;;;;5072791;28;20086;-76
2023/11/24 03:39:48;;;;;;;11.85;1.70;;;6.90;99.90;;;;;;5072004;28;20024;-76
2023/11/24 03:42:13;;;;;;;12.70;1.70;;;6.90;99.90;;;;;;5072464;28;20033;-77
2023/11/24 03:44:39;;;;;;;9.20;1.85;;;6.80;99.90;;;;;;5072978;28;20032;-77
2023/11/24 03:47:05;;;;;;;10.68;2.03;;;6.90;99.90;;;;;;5073102;28;20029;-77
2023/11/24 03:49:31;;;;;;;11.82;2.05;;;6.90;99.90;;;;;;5073063;28;20062;-77
2023/11/24 03:51:57;;;;;;;11.95;1.70;;;6.90;99.90;;;;;;5073004;28;20421;-76
2023/11/24 03:54:23;;;;;;;7.47;1.42;;;6.80;99.90;;;;;;5072983;28;20036;-77
2023/11/24 03:56:49;;;;;;;14.50;2.22;;;6.80;99.90;;;;;;5073140;28;20382;-77
2023/11/24 03:59:14;;;;;;;13.00;2.97;;;6.80;99.90;;;;;;5073058;28;20079;-77
2023/11/24 04:01:40;;;;;;;12.27;1.70;;;6.70;99.90;;;;;;5072971;28;20474;-77
2023/11/24 04:04:06;;;;;;;8.63;1.90;;;6.70;99.90;;;;;;5072688;28;20031;-76
2023/11/24 04:06:32;;;;;;;9.68;1.52;;;6.70;99.90;;;;;;5076395;28;20025;-77
2023/11/24 04:08:58;;;;;;;15.95;2.40;;;6.70;99.90;;;;;;5076622;28;20025;-76
2023/11/24 04:11:23;;;;;;;13.25;2.55;;;6.70;99.90;;;;;;5076231;28;20116;-77
2023/11/24 04:13:49;;;;;;;13.05;2.25;;;6.70;99.90;;;;;;5076649;28;20082;-76
2023/11/24 04:16:14;;;;;;;14.00;3.05;;;6.80;99.90;;;;;;5076694;28;20111;-76
2023/11/24 04:18:41;;;;;;;17.20;2.05;;;6.70;99.90;;;;;;5076246;28;20028;-76
2023/11/24 04:21:06;;;;;;;15.02;2.53;;;6.70;99.90;;;;;;5075981;28;20074;-76
2023/11/24 04:23:32;;;;;;;10.02;1.90;;;6.70;99.90;;;;;;5075966;28;20056;-76
2023/11/24 04:25:57;;;;;;;12.95;2.03;;;6.70;99.90;;;;;;5076325;28;20113;-76
2023/11/24 04:28:23;;;;;;;12.20;2.13;;;6.70;99.90;;;;;;5076381;28;20037;-76
2023/11/24 04:30:49;;;;;;;12.20;2.20;;;6.70;99.90;;;;;;5076337;28;20071;-76
2023/11/24 04:33:14;;;;;;;14.30;2.50;;;6.60;99.90;;;;;;5076249;28;20505;-77
2023/11/24 04:35:40;;;;;;;13.90;2.40;;;6.70;99.90;;;;;;5076349;28;20055;-76
2023/11/24 04:38:06;;;;;;;13.13;2.42;;;6.60;99.90;;;;;;5076364;28;20028;-76
2023/11/24 04:40:31;;;;;;;14.80;2.20;;;6.60;99.90;;;;;;5076134;28;20036;-77
2023/11/24 04:42:57;;;;;;;16.70;2.45;;;6.60;99.90;;;;;;5075953;28;20036;-75
2023/11/24 04:45:22;;;;;;;18.60;2.95;;;6.60;99.90;;;;;;5075666;28;20116;-76
2023/11/24 04:47:48;;;;;;;12.98;2.60;;;6.60;99.90;;;;;;5076034;28;20032;-77
2023/11/24 04:50:16;;;;;;;13.20;2.42;;;6.60;99.90;;;;;;5076042;28;20021;-76
2023/11/24 04:52:41;;;;;;;11.93;2.20;;;6.60;99.90;;;;;;5075749;28;20025;-76
2023/11/24 04:55:07;;;;;;;11.80;1.80;;;6.60;99.90;;;;;;5075973;28;20058;-77
2023/11/24 04:57:33;;;;;;;19.15;2.60;;;6.50;99.90;;;;;;5075495;28;20032;-76
2023/11/24 05:00:00;;;;;;;16.38;2.40;;;6.50;99.90;;;;;;5075786;28;20032;-77
2023/11/24 05:02:25;;;;;;;14.18;2.80;;;6.50;99.90;;;;;;5075627;28;20029;-76
2023/11/24 05:04:51;;;;;;;10.77;2.25;;;6.50;99.90;;;;;;5075679;28;20385;-76
2023/11/24 05:07:18;;;;;;;18.20;3.10;;;6.50;99.90;;;;;;5075612;28;20021;-77
2023/11/24 05:09:45;;;;;;;12.02;2.58;;;6.50;99.90;;;;;;5075310;28;20386;-76
2023/11/24 05:12:10;;;;;;;17.50;2.60;;;6.50;99.90;;;;;;5075659;28;20115;-75
2023/11/24 05:14:36;;;;;;;10.10;1.90;;;6.50;99.90;;;;;;5075655;28;20598;-76
2023/11/24 05:17:02;;;;;;;10.20;2.08;;;6.50;99.90;;;;;;5075289;28;20024;-77
2023/11/24 05:19:27;;;;;;;8.77;1.90;;;6.40;99.90;;;;;;5075488;28;20028;-77
2023/11/24 05:21:53;;;;;;;14.48;2.72;;;6.40;99.90;;;;;;5074722;28;20072;-76
2023/11/24 05:24:19;;;;;;;10.25;1.98;;;6.40;99.90;;;;;;5075398;28;20016;-77
2023/11/24 05:26:44;;;;;;;11.25;2.17;;;6.30;99.90;;;;;;5075394;28;20021;-77
2023/11/24 05:29:10;;;;;;;11.02;1.98;;;6.30;99.90;;;;;;5075342;28;20031;-76
2023/11/24 05:31:35;;;;;;;13.55;2.00;;;6.20;99.90;;;;;;5074843;28;20393;-76
2023/11/24 05:34:01;;;;;;;9.48;2.33;;;6.10;99.90;;;;;;5075301;28;20066;-75
2023/11/24 05:36:27;;;;;;;10.07;1.70;;;6.10;99.90;;;;;;5074708;28;20050;-76
2023/11/24 05:38:54;;;;;;;10.50;2.28;;;6.00;99.90;;;;;;5075033;28;20517;-77
2023/11/24 05:41:21;;;;;;;12.02;1.67;;;6.00;99.90;;;;;;5075089;28;20032;-77
2023/11/24 05:43:47;;;;;;;9.82;2.10;;;6.00;99.90;;;;;;5074643;28;20031;-76
2023/11/24 05:46:13;;;;;;;11.05;1.80;;;6.00;99.90;;;;;;5074878;28;20390;-77
2023/11/24 05:48:38;;;;;;;15.25;2.00;;;5.90;99.90;;;;;;5075034;28;20024;-76
2023/11/24 05:51:05;;;;;;;17.02;2.92;;;5.90;99.90;;;;;;5074823;28;20029;-76
2023/11/24 05:53:30;;;;;;;15.13;2.08;;;5.90;99.90;;;;;;5074847;28;20419;-76
2023/11/24 05:55:57;;;;;;;8.77;1.58;;;5.90;99.90;;;;;;5074568;28;20036;-77
2023/11/24 05:58:22;;;;;;;12.23;1.85;;;5.80;99.90;;;;;;5074254;28;20074;-76
2023/11/24 06:00:49;;;;;;;13.90;2.40;;;5.80;99.90;;;;;;5074650;28;20029;-76
2023/11/24 06:03:15;;;;;;;10.25;1.77;;;5.80;99.90;;;;;;5074515;28;20540;-76
2023/11/24 06:05:41;;;;;;;6.28;2.00;;;5.90;99.90;;;;;;5074164;28;20021;-76
2023/11/24 06:08:06;;;;;;;13.60;2.10;;;5.80;99.90;;;;;;5074322;28;20074;-76
2023/11/24 06:10:32;;;;;;;12.98;2.78;;;5.80;99.90;;;;;;5074647;28;20493;-76
2023/11/24 06:12:58;;;;;;;12.45;2.25;;;5.80;99.90;;;;;;5074322;28;20035;-76
2023/11/24 06:15:24;;;;;;;13.82;1.70;;;5.90;99.90;;;;;;5074005;28;20025;-77
2023/11/24 06:17:50;;;;;;;15.63;2.38;;;5.90;99.90;;;;;;5074307;28;20078;-76
2023/11/24 06:20:17;;;;;;;22.10;2.83;;;5.90;99.90;;;;;;5074116;28;20035;-76
2023/11/24 06:22:43;;;;;;;14.95;2.25;;;6.00;99.90;;;;;;5073820;28;20559;-76
2023/11/24 06:25:10;;;;;;;9.10;2.25;;;5.90;99.90;;;;;;5074228;28;20017;-76
2023/11/24 06:27:36;;;;;;;13.18;1.92;;;5.90;99.90;;;;;;5073519;28;20020;-77
2023/11/24 06:30:05;;;;;;;14.38;1.98;;;5.90;99.90;;;;;;5074134;28;20406;-76
2023/11/24 06:32:31;;;;;;;8.43;2.58;;;5.90;99.90;;;;;;5074419;28;20032;-76
2023/11/24 06:34:56;;;;;;;11.73;2.55;;;5.90;99.90;;;;;;5074165;28;20359;-76
2023/11/24 06:37:22;;;;;;;8.32;1.95;;;5.80;99.90;;;;;;5073904;28;20078;-76
2023/11/24 06:39:48;;;;;;;5.72;1.65;;;5.70;99.90;;;;;;5073882;28;20035;-76
2023/11/24 06:42:13;;;;;;;5.43;1.27;;;5.70;99.90;;;;;;5073236;28;20040;-76
2023/11/24 06:44:39;;;;;;;10.88;1.73;;;5.60;99.90;;;;;;5073751;28;20035;-76
2023/11/24 06:47:04;;;;;;;8.00;2.03;;;5.50;99.90;;;;;;5073874;28;20020;-76
2023/11/24 06:49:32;;;;;;;8.27;2.10;;;5.50;99.90;;;;;;5073241;28;20024;-75
2023/11/24 06:51:58;;;;;;;10.43;1.48;;;5.40;99.90;;;;;;5073630;28;20482;-76
2023/11/24 06:54:24;;;;;;;10.02;1.75;;;5.40;99.90;;;;;;5073174;28;20069;-76
2023/11/24 06:56:50;;;;;;;8.23;2.00;;;5.40;99.90;;;;;;5065034;28;20393;-76
2023/11/24 06:59:16;;;;;;;11.82;1.85;;;5.50;99.90;;;;;;5055089;28;20534;-76
2023/11/24 07:01:42;;;;;;;16.45;2.45;;;5.50;99.90;;;;;;5060831;28;20501;-75
2023/11/24 07:04:07;;;;;;;15.98;2.20;;;5.70;99.90;;;;;;5058979;28;20029;-77
2023/11/24 07:06:34;;;;;;;9.68;2.00;;;5.60;99.90;;;;;;5055111;28;20021;-76
2023/11/24 07:08:59;;;;;;;13.82;2.38;;;5.60;99.90;;;;;;5060957;28;20017;-75
2023/11/24 07:11:25;;;;;;;11.95;2.08;;;5.60;99.90;;;;;;5065966;28;20071;-76
2023/11/24 07:13:51;;;;;;;11.55;2.20;;;5.60;99.90;;;;;;5060286;28;20029;-76
2023/11/24 07:16:16;;;;;;;8.32;2.40;;;5.60;99.90;;;;;;5052527;28;20457;-76
2023/11/24 07:18:43;;;;;;;12.55;1.70;;;5.70;99.90;;;;;;5052889;28;20025;-76
2023/11/24 07:21:09;;;;;;;10.40;1.92;;;5.70;99.90;;;;;;5052703;28;20375;-77
2023/11/24 07:23:37;;;;;;;13.48;2.53;;;5.70;99.90;;;;;;5053721;28;20044;-77
2023/11/24 07:26:04;;;;;;;8.70;2.28;;;5.70;99.90;;;;;;5050561;28;20357;-77
2023/11/24 07:28:30;;;;;;;10.57;2.05;;;5.60;99.90;;;;;;5042381;28;20379;-77
2023/11/24 07:30:56;;;;;;;15.55;2.40;;;5.70;99.90;;;;;;5043710;28;20033;-77
2023/11/24 07:33:21;;;;;;;10.27;2.20;;;5.60;99.90;;;;;;5047457;28;20037;-76
2023/11/24 07:35:47;;;;;;;14.70;2.38;;;5.60;99.90;;;;;;5042767;28;20036;-76
2023/11/24 07:38:13;;;;;;;8.57;2.47;;;5.60;99.90;;;;;;5043729;28;20021;-76
2023/11/24 07:40:39;;;;;;;14.90;2.45;;;5.60;99.90;;;;;;5045574;28;20025;-76
2023/11/24 07:43:05;;;;;;;8.43;1.70;;;5.70;99.90;;;;;;5050529;28;20051;-76
2023/11/24 07:45:30;;;;;;;14.68;2.03;;;5.70;99.90;;;;;;5064282;28;20154;-75
2023/11/24 07:47:56;;;;;;;12.30;2.53;;;5.70;99.90;;;;;;5062907;28;20505;-75
2023/11/24 07:50:21;;;;;;;11.95;2.45;;;5.70;99.90;;;;;;5063612;28;20039;-76
2023/11/24 07:52:47;;;;;;;10.48;1.95;;;5.90;99.90;;;;;;5056691;28;20025;-76
2023/11/24 07:55:13;;;;;;;8.63;1.98;;;6.40;99.90;;;;;;5057844;28;20269;-76
2023/11/24 07:57:40;;;;;;;10.65;1.80;;;6.50;99.90;;;;;;5058666;28;20107;-76
2023/11/24 08:00:10;;;;;;;9.02;1.70;;;6.40;99.90;;;;;;5047212;28;20071;-75
2023/11/24 08:02:37;;;;;;;8.07;1.60;;;6.10;99.90;;;;;;5061872;28;20060;-75
2023/11/24 08:05:02;;;;;;;7.95;1.40;;;6.00;99.90;;;;;;5048481;28;20039;-76
2023/11/24 08:07:28;;;;;;;10.95;1.60;;;5.90;99.90;;;;;;5055231;28;20535;-74
2023/11/24 08:09:54;;;;;;;6.07;2.17;;;5.90;99.90;;;;;;5053257;28;20428;-74
2023/11/24 08:12:19;;;;;;;8.73;1.55;;;5.90;99.90;;;;;;5044667;28;20017;-75
2023/11/24 08:14:45;;;;;;;6.35;1.58;;;5.90;99.90;;;;;;5056396;28;20469;-74
2023/11/24 08:17:11;;;;;;;4.93;1.63;;;5.90;99.90;;;;;;5067693;28;20028;-74
2023/11/24 08:19:37;;;;;;;6.13;1.35;;;5.90;99.90;;;;;;5060175;28;20124;-75
2023/11/24 08:22:04;;;;;;;5.55;1.40;;;6.00;99.90;;;;;;5047619;28;20395;-75
2023/11/24 08:24:30;;;;;;;5.03;1.05;;;6.00;99.90;;;;;;5048595;28;20482;-75
2023/11/24 08:26:55;;;;;;;7.28;1.67;;;5.90;99.90;;;;;;5060852;28;20028;-75
2023/11/24 08:29:21;;;;;;;6.28;1.45;;;6.00;99.90;;;;;;5046927;28;20021;-75
2023/11/24 08:31:48;;;;;;;3.28;0.98;;;6.10;99.90;;;;;;5045230;28;20391;-76
2023/11/24 08:34:15;;;;;;;3.85;0.80;;;6.20;99.90;;;;;;5048384;28;20047;-75
2023/11/24 08:36:41;;;;;;;8.18;1.08;;;6.40;99.90;;;;;;5057433;28;20043;-75
2023/11/24 08:39:13;;;;;;;5.18;1.20;;;6.30;99.90;;;;;;5059505;28;20028;-75
2023/11/24 08:41:43;;;;;;;2.95;0.85;;;6.20;99.90;;;;;;5060077;28;20029;-75
2023/11/24 08:44:08;;;;;;;5.03;1.15;;;6.30;99.90;;;;;;5058078;28;20077;-76
2023/11/24 08:46:34;;;;;;;3.75;1.00;;;6.40;99.90;;;;;;5065862;28;20028;-75
2023/11/24 08:48:59;;;;;;;4.53;1.00;;;6.60;99.90;;;;;;5064179;28;20027;-76
2023/11/24 08:51:26;;;;;;;4.63;1.02;;;6.50;99.90;;;;;;5054192;28;20654;-76
2023/11/24 08:53:52;;;;;;;7.82;1.20;;;6.40;99.90;;;;;;5056669;28;20544;-76
2023/11/24 08:56:17;;;;;;;8.32;1.30;;;6.20;99.90;;;;;;5063557;28;20037;-75
2023/11/24 08:58:43;;;;;;;6.22;1.27;;;6.10;99.90;;;;;;5053270;28;20079;-76
2023/11/24 09:01:12;;;;;;;9.90;1.83;;;6.10;99.90;;;;;;5046075;28;20104;-76
2023/11/24 09:03:38;;;;;;;3.80;1.02;;;6.00;99.90;;;;;;5039140;28;20472;-75
2023/11/24 09:06:04;;;;;;;4.25;1.00;;;6.10;99.90;;;;;;5055333;28;20028;-75
2023/11/24 09:08:29;;;;;;;5.18;1.17;;;6.10;99.90;;;;;;5054317;28;20033;-75
2023/11/24 09:10:55;;;;;;;2.42;0.98;;;6.10;99.90;;;;;;5069076;28;20055;-75
2023/11/24 09:13:21;;;;;;;6.63;0.90;;;6.10;99.90;;;;;;5070217;28;20036;-75
2023/11/24 09:15:46;;;;;;;4.80;0.90;;;6.00;99.90;;;;;;5075448;28;20040;-75
2023/11/24 09:18:12;;;;;;;3.38;0.70;;;6.00;99.90;;;;;;5074886;28;20025;-75
2023/11/24 09:20:37;;;;;;;3.42;0.98;;;5.90;99.90;;;;;;5075372;28;20032;-74
2023/11/24 09:23:04;;;;;;;3.90;1.00;;;5.90;99.90;;;;;;5074086;28;20070;-75
2023/11/24 09:25:32;;;;;;;2.28;0.70;;;5.80;99.90;;;;;;5072054;28;20060;-75
2023/11/24 09:27:59;;;;;;;1.83;0.70;;;5.80;99.90;;;;;;5048509;28;20026;-75
2023/11/24 09:30:24;;;;;;;1.60;0.73;;;5.80;99.90;;;;;;5064026;28;20020;-74
2023/11/24 09:32:54;;;;;;;3.40;1.08;;;5.60;99.90;;;;;;5067308;28;20052;-74
2023/11/24 09:35:21;;;;;;;2.75;0.60;;;5.50;99.90;;;;;;5063062;28;20047;-75
2023/11/24 09:37:47;;;;;;;4.68;0.68;;;5.40;99.90;;;;;;5064040;28;20176;-74
2023/11/24 09:40:16;;;;;;;4.60;0.60;;;5.30;99.90;;;;;;5072908;28;20602;-74
2023/11/24 09:42:44;;;;;;;4.30;0.55;;;5.20;99.90;;;;;;5066558;28;20031;-75
2023/11/24 09:45:15;;;;;;;2.13;0.65;;;5.20;99.90;;;;;;5057287;28;20029;-75
2023/11/24 09:47:44;;;;;;;4.63;0.80;;;5.20;99.90;;;;;;5074883;28;20021;-75
2023/11/24 09:50:12;;;;;;;3.22;0.50;;;5.10;99.90;;;;;;5074259;28;20020;-75
2023/11/24 09:52:42;;;;;;;3.85;0.80;;;5.10;99.90;;;;;;5074695;28;20036;-76
2023/11/24 09:55:08;;;;;;;3.60;0.70;;;5.00;99.90;;;;;;5072335;28;20052;-75
2023/11/24 09:57:34;;;;;;;2.70;0.90;;;5.00;99.90;;;;;;5061642;28;20047;-76
2023/11/24 10:00:00;;;;;;;5.13;1.08;;;5.00;99.90;;;;;;5065733;28;20021;-76
2023/11/24 10:02:26;;;;;;;4.15;1.00;;;5.00;99.90;;;;;;5061548;28;20478;-76
2023/11/24 10:04:53;;;;;;;2.22;0.70;;;5.00;99.90;;;;;;5061775;28;20052;-76
2023/11/24 10:07:22;;;;;;;5.65;1.25;;;5.00;99.90;;;;;;5062860;28;20063;-76
2023/11/24 10:09:49;;;;;;;4.03;1.13;;;5.10;99.90;;;;;;5053712;28;20024;-76
2023/11/24 10:12:16;;;;;;;4.72;0.90;;;5.10;99.90;;;;;;5055640;28;20027;-76
2023/11/24 10:14:43;;;;;;;2.75;1.00;;;5.10;99.90;;;;;;5064555;28;20037;-76
2023/11/24 10:17:09;;;;;;;3.35;1.10;;;5.10;99.90;;;;;;5054861;28;20470;-76
2023/11/24 10:19:36;;;;;;;5.03;1.15;;;5.10;99.90;;;;;;5070805;28;20024;-76
2023/11/24 10:22:02;;;;;;;7.95;1.52;;;5.10;99.90;;;;;;5059460;28;20477;-76
2023/11/24 10:24:32;;;;;;;5.82;1.15;;;5.10;99.90;;;;;;5073014;28;20059;-76
2023/11/24 10:27:07;;;;;;;3.55;1.00;;;5.00;99.90;;;;;;5067968;28;20059;-76
2023/11/24 10:29:34;;;;;;;2.88;0.70;;;5.10;99.90;;;;;;5059656;28;20044;-75
2023/11/24 10:32:00;;;;;;;1.00;0.90;;;5.20;99.90;;;;;;5070786;28;20108;-75
2023/11/24 10:34:25;;;;;;;2.92;0.80;;;5.30;99.90;;;;;;5062895;28;20020;-75
2023/11/24 10:36:53;;;;;;;3.40;1.17;;;5.40;99.90;;;;;;5069373;28;20025;-75
2023/11/24 10:39:21;;;;;;;7.07;1.30;;;5.50;99.90;;;;;;5065162;28;20062;-76
2023/11/24 10:41:48;;;;;;;3.83;1.10;;;5.60;99.90;;;;;;5064564;28;20032;-74
2023/11/24 10:44:17;;;;;;;2.45;1.10;;;5.70;99.90;;;;;;5073357;28;20029;-74
2023/11/24 10:46:44;;;;;;;2.90;0.90;;;5.70;99.90;;;;;;5073529;28;20029;-73
2023/11/24 10:49:20;;;;;;;1.75;1.05;;;5.70;99.90;;;;;;5066182;28;20032;-74
2023/11/24 10:51:56;;;;;;;2.35;0.70;;;5.70;99.90;;;;;;5053838;28;20017;-74
2023/11/24 10:54:29;;;;;;;2.97;0.82;;;5.60;99.90;;;;;;5073197;28;20112;-73
2023/11/24 10:56:58;;;;;;;2.22;1.02;;;5.60;99.90;;;;;;5067429;28;20428;-74
2023/11/24 10:59:27;;;;;;;6.90;1.42;;;5.70;99.90;;;;;;5042450;28;20037;-74
2023/11/24 11:01:55;;;;;;;2.53;0.90;;;5.70;99.90;;;;;;5069717;28;20020;-74
2023/11/24 11:04:22;;;;;;;7.40;1.10;;;5.80;99.90;;;;;;5049689;28;20028;-74
2023/11/24 11:06:59;;;;;;;7.28;1.38;;;5.80;99.90;;;;;;5051176;28;20035;-74
2023/11/24 11:09:42;;;;;;;3.28;1.08;;;5.90;99.90;;;;;;5050376;28;20024;-74
2023/11/24 11:14:46;;;;;;;4.15;1.10;;;5.90;99.90;;;;;;5102537;27;20325;-74
2023/11/24 11:17:15;;;;;;;3.38;1.05;;;5.90;99.90;;;;;;5107687;28;20438;-74
2023/11/24 11:19:55;;;;;;;2.80;1.10;;;5.80;99.90;;;;;;5110608;28;20077;-74
2023/11/24 11:22:28;;;;;;;4.03;1.00;;;5.90;99.90;;;;;;5109503;28;20420;-74
2023/11/24 11:24:55;;;;;;;;;;;5.80;99.90;;;;;;5108127;28;20043;-74
2023/11/24 11:27:26;;;;;;;4.03;0.70;;;5.90;99.90;;;;;;5108622;28;20373;-74
2023/11/24 11:29:53;;;;;;;5.45;1.13;;;6.10;99.90;;;;;;5110462;28;20115;-74
2023/11/24 11:32:19;;;;;;;3.63;0.98;;;6.50;99.90;;;;;;5107482;28;20073;-74
2023/11/24 11:34:44;;;;;;;5.38;1.00;;;6.70;99.90;;;;;;5110340;28;20481;-74
2023/11/24 11:37:11;;;;;;;3.25;1.10;;;6.90;99.90;;;;;;5109927;28;20099;-74
2023/11/24 11:39:47;;;;;;;7.88;1.08;;;7.00;99.90;;;;;;5110238;28;20435;-74
2023/11/24 11:42:14;;;;;;;6.28;1.38;;;7.00;99.90;;;;;;5087543;28;20043;-74
2023/11/24 11:44:46;;;;;;;6.18;1.77;;;7.20;99.90;;;;;;5089725;28;20047;-74
2023/11/24 11:47:21;;;;;;;10.10;1.75;;;7.20;99.90;;;;;;5085610;28;20085;-75
2023/11/24 11:49:51;;;;;;;7.80;1.85;;;6.80;99.90;;;;;;5085589;28;20566;-74
2023/11/24 11:52:19;;;;;;;11.65;2.22;;;6.70;99.90;;;;;;5089873;28;20119;-75
2023/11/24 11:54:47;;;;;;;8.55;1.70;;;6.90;99.90;;;;;;5090454;28;20032;-73
2023/11/24 11:57:13;;;;;;;6.72;1.48;;;6.80;98.90;;;;;;5082171;28;20017;-74
2023/11/24 11:59:39;;;;;;;7.05;1.38;;;7.00;99.90;;;;;;5087785;28;20035;-74
2023/11/24 12:02:07;;;;;;;8.88;1.83;;;7.20;99.90;;;;;;5089729;28;20027;-74
2023/11/24 12:04:34;;;;;;;6.05;1.25;;;7.20;86.70;;;;;;5084612;28;20389;-74
2023/11/24 12:07:01;;;;;;;2.95;0.80;;;7.10;92.60;;;;;;5085231;28;20020;-74
2023/11/24 12:09:26;;;;;;;4.15;1.13;;;7.20;78.50;;;;;;5085931;28;20043;-74
2023/11/24 12:11:52;;;;;;;4.25;1.40;;;7.20;78.50;;;;;;5088176;28;20028;-75
2023/11/24 12:14:17;;;;;;;5.97;1.25;;;7.30;62.20;;;;;;5088615;28;20500;-74
2023/11/24 12:16:43;;;;;;;5.88;1.27;;;7.40;67.90;;;;;;5087445;28;20024;-74
2023/11/24 12:19:10;;;;;;;5.57;1.45;;;7.60;71.80;;;;;;5089010;28;20024;-75
2023/11/24 12:21:37;;;;;;;8.52;1.30;;;7.60;64.00;;;;;;5088934;28;20013;-74
2023/11/24 12:24:05;;;;;;;8.20;1.25;;;7.50;64.20;;;;;;5087330;28;20477;-74
2023/11/24 12:26:32;;;;;;;6.90;1.30;;;7.50;64.30;;;;;;5071553;28;20032;-75
2023/11/24 12:28:58;;;;;;;7.30;1.77;;;7.50;69.80;;;;;;5069381;28;20024;-75
2023/11/24 12:31:31;;;;;;;3.63;0.93;;;7.40;61.20;;;;;;5072699;28;20434;-75
2023/11/24 12:33:56;;;;;;;7.55;1.38;;;7.40;71.10;;;;;;5071020;28;20016;-74
2023/11/24 12:36:24;;;;;;;9.45;1.55;;;7.40;63.20;;;;;;5075853;28;20035;-75
2023/11/24 12:38:50;;;;;;;11.05;2.10;;;7.40;79.90;;;;;;5075982;28;20462;-75
2023/11/24 12:41:16;;;;;;;4.72;1.42;;;7.40;59.70;;;;;;5075306;28;20019;-73
2023/11/24 12:43:42;;;;;;;9.80;1.40;;;7.50;58.70;;;;;;5072816;28;20505;-75
2023/11/24 12:46:19;;;;;;;9.98;2.08;;;7.50;38.00;;;;;;5074983;28;20029;-75
2023/11/24 12:48:47;;;;;;;9.55;1.85;;;7.50;19.30;;;;;;5072551;28;20378;-75
2023/11/24 12:51:14;;;;;;;5.25;1.63;;;7.20;46.00;;;;;;5074522;28;20020;-75